Terminal Aerodrome Forecast
Issued by NWS Charleston, SC

Home | Current Version | Previous Version | Text Only | Print | Product List | Glossary On
Versions: 1 2 3 4 5 6 7 8 9 10 11 12 13 14 15 16 17 18 19 20 21 22 23 24 25 26 27 28
928
FTUS42 KCHS 221130
TAFSAV
TAF
KSAV 221130Z 2212/2312 VRB06KT 6SM SHRA VCTS SCT010CB OVC015
      WS015/23035KT
      TEMPO 2212/2215 VRB20G30KT 3SM TSRA BR SCT005 OVC010CB
     FM221600 20015G25KT P6SM VCSH SCT015 BKN035
     FM222200 19020G30KT P6SM VCSH SCT025 BKN035
     FM230400 23012G18KT P6SM FEW035 SCT080=

USA.gov is the U.S. government's official web portal to all federal, state and local government web resources and services.